CheckWX is a tool to help pilots better visualize weather data.  It is not intended as a substitute for an official pre-flight weather briefing.

01:47:14 UTC

KRNH TAF
New Richmond Regional Airport
New Richmond, Wisconsin, USA
KRNH 182320Z 1900/1924 30008KT P6SM SKC FM190200 VRB03KT P6SM SKC FM191700 20009KT P6SM SKC

Aug-19@
00:00 UTC

Aug-19 @ 00:00 UTC

Aug-19@
02:00 UTC

Aug-19 @ 02:00 UTC

KRNH 182320Z 1900/1924 30008KT P6SM SKC
Wind
  • 300° at 8 KTS
Cloud Levels
  • Clear skies

Aug-19@
02:00 UTC

Aug-19 @ 02:00 UTC

Aug-19@
17:00 UTC

Aug-19 @ 17:00 UTC

FM190200 VRB03KT P6SM SKC

From

From Standard forecast or significant change

Wind
  • Variable at 3 KTS
Cloud Levels
  • Clear skies

Aug-19@
17:00 UTC

Aug-19 @ 17:00 UTC

Aug-20@
00:00 UTC

Aug-20 @ 00:00 UTC

FM191700 20009KT P6SM SKC

From

From Standard forecast or significant change

Wind
  • 200° at 9 KTS
Cloud Levels
  • Clear skies